createdAt,value
2017-10-05T00:02:20.891Z,3.07
2017-10-05T00:04:49.975Z,2.67
2017-10-05T00:07:19.912Z,2.70
2017-10-05T00:09:48.032Z,3.23
2017-10-05T00:12:15.621Z,3.17
2017-10-05T00:14:43.202Z,2.53
2017-10-05T00:17:10.813Z,2.30
2017-10-05T00:19:38.391Z,2.47
2017-10-05T00:22:07.300Z,3.10
2017-10-05T00:24:35.206Z,2.60
2017-10-05T00:27:03.213Z,2.80
2017-10-05T00:29:31.332Z,2.87
2017-10-05T00:31:58.905Z,2.70
2017-10-05T00:34:29.336Z,1.97
2017-10-05T00:36:57.356Z,2.90
2017-10-05T00:39:26.364Z,2.67
2017-10-05T00:41:55.913Z,2.20
2017-10-05T00:44:23.899Z,2.40
2017-10-05T00:46:51.847Z,3.17
2017-10-05T00:49:19.450Z,2.77
2017-10-05T00:51:47.036Z,2.20
2017-10-05T00:54:16.023Z,2.00
2017-10-05T00:56:43.622Z,2.10
2017-10-05T00:59:12.129Z,2.57
2017-10-05T01:01:41.973Z,2.20
2017-10-05T01:04:09.559Z,2.10
2017-10-05T01:06:37.157Z,2.27
2017-10-05T01:09:04.736Z,2.20
2017-10-05T01:11:32.345Z,2.00
2017-10-05T01:14:00.601Z,2.40
2017-10-05T01:16:29.578Z,2.40
2017-10-05T01:18:58.580Z,2.23
2017-10-05T01:21:26.155Z,1.90
2017-10-05T01:23:55.418Z,2.23
2017-10-05T01:26:24.427Z,2.13
2017-10-05T01:28:52.194Z,1.80
2017-10-05T01:31:19.773Z,2.00
2017-10-05T01:33:47.397Z,1.87
2017-10-05T01:36:15.273Z,1.90
2017-10-05T01:38:44.558Z,1.70
2017-10-05T01:41:13.893Z,1.70
2017-10-05T01:43:42.786Z,1.90
2017-10-05T01:46:10.337Z,1.87
2017-10-05T01:48:38.232Z,2.20
2017-10-05T01:51:07.630Z,2.37
2017-10-05T01:53:36.706Z,1.93
2017-10-05T01:56:04.317Z,2.00
2017-10-05T01:58:31.885Z,1.80
2017-10-05T02:00:59.857Z,1.93
2017-10-05T02:03:27.437Z,1.90
2017-10-05T02:05:56.801Z,2.13
2017-10-05T02:08:25.485Z,1.50
2017-10-05T02:10:53.030Z,2.00
2017-10-05T02:13:21.715Z,1.80
2017-10-05T02:15:52.013Z,2.37
2017-10-05T02:18:20.730Z,1.80
2017-10-05T02:20:50.048Z,1.73
2017-10-05T02:23:19.674Z,2.10
2017-10-05T02:25:47.254Z,1.80
2017-10-05T02:28:15.165Z,1.80
2017-10-05T02:30:46.440Z,2.03
2017-10-05T02:33:16.735Z,2.27
2017-10-05T02:35:45.620Z,2.13
2017-10-05T02:38:13.192Z,2.00
2017-10-05T02:40:40.788Z,2.47
2017-10-05T02:43:08.699Z,1.90
2017-10-05T02:45:37.509Z,2.73
2017-10-05T02:48:06.363Z,2.73
2017-10-05T02:50:34.307Z,2.20
2017-10-05T02:53:03.136Z,2.20
2017-10-05T02:55:30.706Z,1.97
2017-10-05T02:57:59.163Z,2.20
2017-10-05T03:00:26.702Z,2.53
2017-10-05T03:02:54.290Z,2.37
2017-10-05T03:05:26.433Z,2.47
2017-10-05T03:07:54.044Z,2.27
2017-10-05T03:10:22.905Z,2.17
2017-10-05T03:12:50.495Z,2.57
2017-10-05T03:15:18.521Z,2.00
2017-10-05T03:17:46.078Z,2.53
2017-10-05T03:20:14.992Z,2.00
2017-10-05T03:22:42.551Z,2.33
2017-10-05T03:25:11.287Z,2.80
2017-10-05T03:27:38.944Z,2.60
2017-10-05T03:30:06.537Z,2.87
2017-10-05T03:32:35.527Z,2.37
2017-10-05T03:35:04.537Z,2.40
2017-10-05T03:37:32.497Z,2.40
2017-10-05T03:40:00.394Z,2.53
2017-10-05T03:42:27.979Z,2.63
2017-10-05T03:44:55.955Z,2.47
2017-10-05T03:47:23.541Z,2.40
2017-10-05T03:49:53.548Z,2.60
2017-10-05T03:52:22.494Z,2.80
2017-10-05T03:54:50.857Z,2.87
2017-10-05T03:57:18.924Z,3.43
2017-10-05T03:59:46.557Z,3.27
2017-10-05T04:02:14.174Z,3.03
2017-10-05T04:04:42.181Z,3.40
2017-10-05T04:07:09.776Z,2.70
2017-10-05T04:09:38.791Z,2.80
2017-10-05T04:12:06.987Z,3.53
2017-10-05T04:14:35.856Z,3.57
2017-10-05T04:17:03.418Z,3.40
2017-10-05T04:19:31.132Z,3.10
2017-10-05T04:21:59.126Z,3.40
2017-10-05T04:24:27.073Z,3.70
2017-10-05T04:26:54.651Z,3.50
2017-10-05T04:29:22.236Z,3.80
2017-10-05T04:31:51.127Z,3.60
2017-10-05T04:34:20.732Z,4.10
2017-10-05T04:36:48.662Z,3.67
2017-10-05T04:39:18.131Z,3.57
2017-10-05T04:41:45.746Z,3.80
2017-10-05T04:44:13.327Z,3.57
2017-10-05T04:46:41.254Z,3.73
2017-10-05T04:49:08.833Z,3.90
2017-10-05T04:51:37.725Z,4.17
2017-10-05T04:54:05.324Z,4.10
2017-10-05T04:56:35.902Z,4.10
2017-10-05T04:59:04.618Z,4.80
2017-10-05T05:01:33.727Z,5.13
2017-10-05T05:04:01.792Z,5.73
2017-10-05T05:06:31.000Z,5.73
2017-10-05T05:08:59.071Z,5.20
2017-10-05T05:11:27.060Z,6.50
2017-10-05T05:13:54.980Z,5.80
2017-10-05T05:16:22.674Z,6.57
2017-10-05T05:18:52.038Z,6.37
2017-10-05T05:21:19.633Z,6.10
2017-10-05T05:23:48.892Z,8.30
2017-10-05T05:26:16.501Z,7.27
2017-10-05T05:28:44.446Z,7.10
2017-10-05T05:31:12.589Z,6.73
2017-10-05T05:33:40.166Z,7.70
2017-10-05T05:36:10.526Z,7.77
2017-10-05T05:38:38.450Z,6.93
2017-10-05T05:41:06.055Z,7.00
2017-10-05T05:43:33.785Z,7.00
2017-10-05T05:46:02.908Z,6.97
2017-10-05T05:48:30.497Z,6.70
2017-10-05T05:51:01.376Z,7.03
2017-10-05T05:53:29.743Z,7.00
2017-10-05T05:55:57.809Z,6.43
2017-10-05T05:58:25.396Z,6.43
2017-10-05T06:00:53.469Z,6.87
2017-10-05T06:03:21.051Z,6.63
2017-10-05T06:05:49.518Z,6.67
2017-10-05T06:08:19.800Z,6.60
2017-10-05T06:10:47.408Z,5.73
2017-10-05T06:13:16.747Z,6.87
2017-10-05T06:15:44.352Z,5.70
2017-10-05T06:18:12.982Z,5.90
2017-10-05T06:20:40.655Z,5.80
2017-10-05T06:23:08.667Z,5.83
2017-10-05T06:25:39.317Z,5.07
2017-10-05T06:28:08.501Z,4.87
2017-10-05T06:30:36.106Z,4.83
2017-10-05T06:33:07.162Z,4.83
2017-10-05T06:35:34.752Z,4.57
2017-10-05T06:38:03.756Z,3.33
2017-10-05T06:40:32.393Z,3.20
2017-10-05T06:42:59.944Z,2.93
2017-10-05T06:45:27.975Z,3.27
2017-10-05T06:47:56.130Z,2.70
2017-10-05T06:50:24.098Z,2.73
2017-10-05T06:52:52.074Z,2.50
2017-10-05T06:55:19.685Z,2.30
2017-10-05T06:57:48.396Z,1.97
2017-10-05T07:00:17.850Z,2.23
2017-10-05T07:02:45.786Z,2.60
2017-10-05T07:05:14.894Z,2.50
2017-10-05T07:07:42.475Z,2.23
2017-10-05T07:10:11.607Z,2.60
2017-10-05T07:12:40.916Z,2.77
2017-10-05T07:15:08.518Z,2.43
2017-10-05T07:17:36.103Z,2.63
2017-10-05T07:20:03.683Z,1.93
2017-10-05T07:22:31.666Z,2.10
2017-10-05T07:25:02.013Z,1.90
2017-10-05T07:27:32.437Z,1.90
2017-10-05T07:30:00.057Z,2.23
2017-10-05T07:32:27.993Z,2.33
2017-10-05T07:34:56.494Z,2.23
2017-10-05T07:37:28.040Z,2.13
2017-10-05T07:39:56.079Z,2.20
2017-10-05T07:42:24.081Z,2.10
2017-10-05T07:44:51.654Z,1.80
2017-10-05T07:47:19.283Z,1.90
2017-10-05T07:49:46.873Z,2.23
2017-10-05T07:52:14.489Z,1.60
2017-10-05T07:54:42.068Z,1.90
2017-10-05T07:57:09.653Z,1.73
2017-10-05T07:59:37.763Z,1.73
2017-10-05T08:02:05.510Z,2.20
2017-10-05T08:04:33.537Z,2.10
2017-10-05T08:07:01.176Z,1.90
2017-10-05T08:09:28.804Z,1.80
2017-10-05T08:11:56.388Z,1.83
2017-10-05T08:14:23.994Z,1.73
2017-10-05T08:16:51.940Z,1.80
2017-10-05T08:19:19.937Z,1.83
2017-10-05T08:21:47.533Z,1.73
2017-10-05T08:24:15.107Z,1.70
2017-10-05T08:26:42.718Z,1.57
2017-10-05T08:29:10.292Z,1.63
2017-10-05T08:31:39.264Z,1.87
2017-10-05T08:34:06.839Z,1.63
2017-10-05T08:36:34.464Z,1.80
2017-10-05T08:39:02.045Z,1.60
2017-10-05T08:41:29.609Z,1.40
2017-10-05T08:43:57.189Z,1.53
2017-10-05T08:46:24.754Z,1.67
2017-10-05T08:48:52.358Z,1.80
2017-10-05T08:51:20.153Z,1.30
2017-10-05T08:53:47.756Z,1.47
2017-10-05T08:56:15.549Z,1.70
2017-10-05T08:58:44.843Z,1.50
2017-10-05T09:01:13.994Z,2.10
2017-10-05T09:03:42.251Z,1.80
2017-10-05T09:06:09.821Z,1.62
2017-10-05T09:08:37.421Z,1.85
2017-10-05T09:11:06.762Z,1.70
2017-10-05T09:13:34.329Z,1.73
2017-10-05T09:16:01.911Z,2.00
2017-10-05T09:18:29.482Z,1.70
2017-10-05T09:20:57.076Z,1.60
2017-10-05T09:23:25.060Z,2.40
2017-10-05T09:25:52.704Z,1.50
2017-10-05T09:28:20.286Z,1.50
2017-10-05T09:30:48.203Z,1.70
2017-10-05T09:33:15.795Z,1.60
2017-10-05T09:35:43.786Z,1.60
2017-10-05T09:38:11.397Z,1.37
2017-10-05T09:40:40.404Z,1.50
2017-10-05T09:43:08.013Z,1.57
2017-10-05T09:45:35.582Z,1.50
2017-10-05T09:48:03.547Z,1.70
2017-10-05T09:50:32.602Z,1.50
2017-10-05T09:53:00.689Z,1.30
2017-10-05T09:55:29.118Z,1.60
2017-10-05T09:57:56.703Z,1.80
2017-10-05T10:00:24.988Z,1.70
2017-10-05T10:02:53.219Z,1.50
2017-10-05T10:05:21.236Z,1.80
2017-10-05T10:07:49.230Z,1.47
2017-10-05T10:10:16.821Z,1.30
2017-10-05T10:12:44.439Z,1.50
2017-10-05T10:15:14.697Z,1.50
2017-10-05T10:17:43.009Z,1.70
2017-10-05T10:20:11.012Z,1.67
2017-10-05T10:22:38.742Z,2.20
2017-10-05T10:25:06.475Z,1.47
2017-10-05T10:27:34.108Z,1.50
2017-10-05T10:30:02.697Z,1.30
2017-10-05T10:32:30.266Z,1.40
2017-10-05T10:34:57.891Z,1.30
2017-10-05T10:37:25.482Z,1.20
2017-10-05T10:39:53.226Z,1.40
2017-10-05T10:42:20.844Z,1.30
2017-10-05T10:44:48.431Z,1.60
2017-10-05T10:47:15.989Z,1.50
2017-10-05T10:49:43.883Z,1.40
2017-10-05T10:52:11.456Z,1.60
2017-10-05T10:54:39.042Z,1.37
2017-10-05T10:57:07.899Z,1.60
2017-10-05T10:59:36.701Z,1.57
2017-10-05T11:02:04.734Z,1.40
2017-10-05T11:04:32.341Z,1.37
2017-10-05T11:07:03.046Z,1.30
2017-10-05T11:09:31.352Z,1.17
2017-10-05T11:12:01.196Z,1.60
2017-10-05T11:14:28.808Z,1.63
2017-10-05T11:16:56.407Z,1.30
2017-10-05T11:19:24.031Z,1.53
2017-10-05T11:21:52.918Z,1.30
2017-10-05T11:24:20.535Z,1.40
2017-10-05T11:26:48.118Z,1.37
2017-10-05T11:29:15.726Z,1.37
2017-10-05T11:31:43.511Z,1.50
2017-10-05T11:34:11.905Z,1.30
2017-10-05T11:36:39.511Z,1.60
2017-10-05T11:39:07.107Z,1.30
2017-10-05T11:41:34.780Z,1.30
2017-10-05T11:44:02.371Z,1.73
2017-10-05T11:46:30.333Z,1.67
2017-10-05T11:48:57.895Z,1.50
2017-10-05T11:51:25.498Z,1.30
2017-10-05T11:53:53.604Z,1.57
2017-10-05T11:56:21.865Z,1.50
2017-10-05T11:58:49.470Z,1.67
2017-10-05T12:01:17.048Z,1.70
2017-10-05T12:03:45.162Z,1.30
2017-10-05T12:06:12.753Z,1.67
2017-10-05T12:08:40.363Z,1.30
2017-10-05T12:11:08.328Z,1.47
2017-10-05T12:13:36.223Z,1.10
2017-10-05T12:16:03.816Z,1.30
2017-10-05T12:18:31.395Z,1.53
2017-10-05T12:20:59.435Z,1.60
2017-10-05T12:23:27.040Z,1.50
2017-10-05T12:25:54.641Z,1.67
2017-10-05T12:28:22.205Z,1.53
2017-10-05T12:30:50.180Z,1.27
2017-10-05T12:33:17.761Z,1.30
2017-10-05T12:35:45.327Z,1.40
2017-10-05T12:38:13.255Z,1.40
2017-10-05T12:40:40.855Z,1.50
2017-10-05T12:43:08.481Z,1.33
2017-10-05T12:45:36.066Z,1.40
2017-10-05T12:48:04.017Z,1.57
2017-10-05T12:50:33.272Z,1.40
2017-10-05T12:53:00.890Z,1.27
2017-10-05T12:55:29.154Z,1.87
2017-10-05T12:57:56.780Z,1.20
2017-10-05T13:00:24.952Z,2.10
2017-10-05T13:02:52.935Z,2.00
2017-10-05T13:05:20.689Z,1.50
2017-10-05T13:07:48.262Z,1.90
2017-10-05T13:10:17.153Z,2.00
2017-10-05T13:12:44.727Z,1.50
2017-10-05T13:15:12.347Z,1.83
2017-10-05T13:17:39.935Z,1.50
2017-10-05T13:20:08.206Z,1.80
2017-10-05T13:22:35.787Z,1.67
2017-10-05T13:25:03.376Z,2.13
2017-10-05T13:27:30.976Z,1.90
2017-10-05T13:29:58.990Z,1.30
2017-10-05T13:32:29.184Z,1.80
2017-10-05T13:34:56.914Z,1.40
2017-10-05T13:37:24.536Z,1.53
2017-10-05T13:39:52.240Z,1.67
2017-10-05T13:42:21.139Z,2.00
2017-10-05T13:44:48.729Z,1.97
2017-10-05T13:47:16.658Z,1.80
2017-10-05T13:49:44.902Z,2.97
2017-10-05T13:52:12.586Z,2.27
2017-10-05T13:54:40.562Z,2.00
2017-10-05T13:57:08.440Z,1.87
2017-10-05T13:59:36.472Z,1.97
2017-10-05T14:02:04.115Z,1.50
2017-10-05T14:04:32.087Z,1.60
2017-10-05T14:06:59.658Z,1.80
2017-10-05T14:09:27.232Z,1.90
2017-10-05T14:11:54.886Z,1.87
2017-10-05T14:14:22.469Z,2.17
2017-10-05T14:16:50.076Z,2.97
2017-10-05T14:19:18.172Z,1.50
2017-10-05T14:21:45.817Z,2.07
2017-10-05T14:24:13.407Z,1.87
2017-10-05T14:26:41.094Z,2.30
2017-10-05T14:29:08.691Z,1.27
2017-10-05T14:31:36.294Z,1.77
2017-10-05T14:34:03.895Z,1.60
2017-10-05T14:36:31.597Z,2.10
2017-10-05T14:38:59.201Z,1.40
2017-10-05T14:41:28.157Z,2.00
2017-10-05T14:43:55.791Z,1.53
2017-10-05T14:46:24.801Z,1.43
2017-10-05T14:48:52.420Z,1.33
2017-10-05T14:51:20.491Z,1.33
2017-10-05T14:53:49.487Z,1.37
2017-10-05T14:56:17.101Z,1.70
2017-10-05T14:58:44.663Z,1.80
2017-10-05T15:01:12.668Z,1.50
2017-10-05T15:03:40.720Z,1.87
2017-10-05T15:06:08.711Z,1.83
2017-10-05T15:08:36.314Z,1.80
2017-10-05T15:11:03.939Z,2.30
2017-10-05T15:13:31.514Z,1.80
2017-10-05T15:15:59.566Z,1.70
2017-10-05T15:18:27.184Z,1.30
2017-10-05T15:20:54.766Z,1.50
2017-10-05T15:23:22.358Z,1.30
2017-10-05T15:25:49.952Z,1.37
2017-10-05T15:28:17.888Z,1.30
2017-10-05T15:30:45.906Z,1.20
2017-10-05T15:33:13.528Z,1.57
2017-10-05T15:35:41.520Z,1.20
2017-10-05T15:38:09.087Z,1.53
2017-10-05T15:40:38.323Z,1.53
2017-10-05T15:43:08.871Z,1.60
2017-10-05T15:45:36.708Z,1.50
2017-10-05T15:48:04.644Z,1.50
2017-10-05T15:50:32.270Z,1.40
2017-10-05T15:52:59.934Z,1.37
2017-10-05T15:55:27.550Z,1.50
2017-10-05T15:57:55.934Z,1.30
2017-10-05T16:00:25.280Z,1.47
2017-10-05T16:03:00.665Z,1.20
2017-10-05T16:11:21.280Z,1.33
2017-10-05T16:13:48.850Z,1.60
2017-10-05T16:16:17.629Z,1.53
2017-10-05T16:18:46.460Z,1.40
2017-10-05T16:21:14.053Z,1.40
2017-10-05T16:23:44.288Z,2.10
2017-10-05T16:26:11.859Z,2.57
2017-10-05T16:28:40.787Z,1.60
2017-10-05T16:31:16.289Z,2.00
2017-10-05T16:33:46.968Z,1.50
2017-10-05T16:36:17.310Z,1.80
2017-10-05T16:38:45.388Z,1.63
2017-10-05T16:41:15.062Z,1.87
2017-10-05T16:43:42.656Z,1.70
2017-10-05T16:46:10.660Z,1.70
2017-10-05T16:48:38.265Z,1.70
2017-10-05T16:51:06.782Z,1.37
2017-10-05T16:53:34.892Z,1.53
2017-10-05T16:56:02.520Z,1.57
2017-10-05T16:58:32.980Z,1.80
2017-10-05T17:01:06.268Z,1.83
2017-10-05T17:03:33.929Z,1.67
2017-10-05T17:06:05.327Z,1.67
2017-10-05T17:08:35.987Z,1.90
2017-10-05T17:11:05.998Z,1.70
2017-10-05T17:13:34.771Z,1.63
2017-10-05T17:16:02.366Z,1.40
2017-10-05T17:18:29.980Z,1.57
2017-10-05T17:20:59.042Z,1.30
2017-10-05T17:23:26.661Z,1.60
2017-10-05T17:25:55.881Z,1.77
2017-10-05T17:28:23.512Z,1.33
2017-10-05T17:30:51.292Z,1.97
2017-10-05T17:33:19.574Z,1.70
2017-10-05T17:35:47.126Z,1.40
2017-10-05T17:38:14.706Z,1.60
2017-10-05T17:40:44.069Z,1.23
2017-10-05T17:43:12.046Z,2.97
2017-10-05T17:45:39.667Z,1.50
2017-10-05T17:48:08.715Z,1.60
2017-10-05T17:50:36.391Z,1.57
2017-10-05T17:53:04.389Z,1.83
2017-10-05T17:55:32.030Z,1.53
2017-10-05T17:57:59.760Z,1.40
2017-10-05T18:00:27.509Z,1.60
2017-10-05T18:02:55.112Z,2.10
2017-10-05T18:05:22.704Z,1.67
2017-10-05T18:07:50.723Z,1.93
2017-10-05T18:10:18.740Z,2.37
2017-10-05T18:12:47.857Z,1.63
2017-10-05T18:15:17.048Z,2.37
2017-10-05T18:17:45.104Z,1.47
2017-10-05T18:20:12.696Z,1.77
2017-10-05T18:22:41.399Z,1.87
2017-10-05T18:25:10.588Z,1.40
2017-10-05T18:27:39.641Z,1.60
2017-10-05T18:30:07.288Z,2.07
2017-10-05T18:32:38.887Z,2.67
2017-10-05T18:35:06.498Z,2.57
2017-10-05T18:37:34.121Z,2.00
2017-10-05T18:40:03.634Z,1.90
2017-10-05T18:42:32.575Z,1.60
2017-10-05T18:45:01.481Z,1.50
2017-10-05T18:47:30.471Z,2.30
2017-10-05T18:49:59.145Z,1.57
2017-10-05T18:52:27.501Z,8.60
2017-10-05T18:54:55.856Z,10.77
2017-10-05T18:57:24.552Z,3.07
2017-10-05T18:59:52.351Z,6.33
2017-10-05T19:02:22.325Z,4.40
2017-10-05T19:04:49.913Z,3.03
2017-10-05T19:07:17.576Z,2.60
2017-10-05T19:09:45.192Z,1.60
2017-10-05T19:12:12.837Z,3.63
2017-10-05T19:14:40.452Z,3.67
2017-10-05T19:17:09.843Z,4.70
2017-10-05T19:19:38.635Z,2.27
2017-10-05T19:22:07.394Z,2.30
2017-10-05T19:24:36.050Z,4.53
2017-10-05T19:27:05.716Z,4.40
2017-10-05T19:29:33.369Z,3.77
2017-10-05T19:32:03.009Z,4.37
2017-10-05T19:34:30.601Z,2.37
2017-10-05T19:36:58.605Z,1.40
2017-10-05T19:39:27.037Z,1.70
2017-10-05T19:41:54.662Z,1.40
2017-10-05T19:44:22.886Z,1.60
2017-10-05T19:46:52.889Z,1.13
2017-10-05T19:49:20.498Z,1.50
2017-10-05T19:51:48.101Z,1.43
2017-10-05T19:54:15.716Z,1.93
2017-10-05T19:56:43.780Z,1.73
2017-10-05T19:59:12.772Z,1.40
2017-10-05T20:01:40.382Z,1.40
2017-10-05T20:04:11.047Z,1.50
2017-10-05T20:06:39.021Z,1.60
2017-10-05T20:09:06.979Z,1.40
2017-10-05T20:11:36.008Z,1.57
2017-10-05T20:17:24.764Z,1.90
2017-10-05T20:19:57.870Z,1.53
2017-10-05T20:22:31.346Z,1.47
2017-10-05T20:25:01.736Z,1.63
2017-10-05T20:27:32.997Z,1.77
2017-10-05T20:30:19.714Z,1.67
2017-10-05T20:32:47.697Z,1.40
2017-10-05T20:35:15.988Z,1.60
2017-10-05T20:37:43.581Z,1.83
2017-10-05T20:40:11.117Z,1.60
2017-10-05T20:42:40.154Z,1.70
2017-10-05T20:45:07.770Z,1.70
2017-10-05T20:47:35.359Z,1.80
2017-10-05T20:50:04.441Z,1.60
2017-10-05T20:52:32.416Z,1.60
2017-10-05T20:55:00.493Z,1.80
2017-10-05T20:57:28.095Z,1.57
2017-10-05T20:59:56.120Z,1.67
2017-10-05T21:02:23.712Z,1.93
2017-10-05T21:04:51.299Z,2.17
2017-10-05T21:07:19.301Z,1.77
2017-10-05T21:09:46.882Z,1.93
2017-10-05T21:12:14.899Z,1.60
2017-10-05T21:14:42.476Z,1.60
2017-10-05T21:17:10.557Z,1.80
2017-10-05T21:19:38.150Z,1.93
2017-10-05T21:22:06.180Z,2.33
2017-10-05T21:24:34.511Z,1.83
2017-10-05T21:27:02.118Z,2.17
2017-10-05T21:29:29.709Z,2.07
2017-10-05T21:31:57.329Z,1.80
2017-10-05T21:34:25.537Z,1.80
2017-10-05T21:36:53.592Z,1.70
2017-10-05T21:39:21.155Z,1.97
2017-10-05T21:41:49.060Z,2.40
2017-10-05T21:44:16.960Z,2.20
2017-10-05T21:46:44.550Z,2.30
2017-10-05T21:49:12.178Z,1.90
2017-10-05T21:51:39.764Z,2.00
2017-10-05T21:54:08.571Z,1.50
2017-10-05T21:56:36.131Z,1.73
2017-10-05T21:59:03.729Z,1.80
2017-10-05T22:01:31.283Z,1.83
2017-10-05T22:03:59.202Z,2.10
2017-10-05T22:06:26.804Z,2.00
2017-10-05T22:08:55.027Z,2.27
2017-10-05T22:11:22.621Z,2.13
2017-10-05T22:13:50.215Z,2.07
2017-10-05T22:16:17.853Z,1.70
2017-10-05T22:18:45.412Z,1.57
2017-10-05T22:21:13.361Z,1.93
2017-10-05T22:23:41.687Z,2.10
2017-10-05T22:26:09.269Z,2.30
2017-10-05T22:28:36.859Z,2.07
2017-10-05T22:31:04.418Z,1.90
2017-10-05T22:33:32.121Z,2.03
2017-10-05T22:36:01.144Z,2.20
2017-10-05T22:38:28.811Z,1.80
2017-10-05T22:40:56.422Z,2.07
2017-10-05T22:43:24.013Z,1.97
2017-10-05T22:45:51.621Z,2.67
2017-10-05T22:48:19.219Z,2.17
2017-10-05T22:50:47.629Z,2.23
2017-10-05T22:53:15.228Z,2.67
2017-10-05T22:55:43.217Z,2.10
2017-10-05T22:58:11.914Z,1.93
2017-10-05T23:00:40.043Z,2.17
2017-10-05T23:03:08.352Z,2.00
2017-10-05T23:05:35.918Z,1.93
2017-10-05T23:08:04.504Z,2.00
2017-10-05T23:10:32.060Z,2.50
2017-10-05T23:12:59.970Z,2.23
2017-10-05T23:15:27.538Z,2.20
2017-10-05T23:17:55.484Z,1.80
2017-10-05T23:20:23.068Z,2.50
2017-10-05T23:22:50.649Z,2.50
2017-10-05T23:25:18.267Z,2.60
2017-10-05T23:27:46.016Z,2.40
2017-10-05T23:30:13.622Z,2.03
2017-10-05T23:32:41.217Z,2.40
2017-10-05T23:35:09.156Z,3.27
2017-10-05T23:37:36.754Z,2.53
2017-10-05T23:40:04.455Z,2.60
2017-10-05T23:42:32.082Z,2.80
2017-10-05T23:44:59.656Z,3.00
2017-10-05T23:47:27.273Z,2.80
2017-10-05T23:49:55.247Z,3.10
2017-10-05T23:52:22.808Z,2.60
2017-10-05T23:54:50.415Z,2.70
2017-10-05T23:57:18.537Z,2.50
2017-10-05T23:59:46.123Z,3.20
